Lagoon City, Ontario

Past 24 Hour Conditions

This table is a summary of hourly weather conditions for the past 24 hours. This summary includes the following parameters: temperature, humidity, dew point, wind speed and direction, air pressure, visibility and/or wind chill and humidex.
Date / Time
(EDT)
Conditions Temp (°F) Humidity (%) Dew Point (°F) Wind (mph) Pressure (inches) Visibility (miles)
18 September 2014
13:00 N/A 50 56 35 NNW 6 30.2 N/A
12:00 N/A 48 59 34 N 5 30.2 N/A
11:00 N/A 46 65 35 N 6 30.2 N/A
10:00 N/A 44 75 37 NNE 13 30.2 N/A
9:00 N/A 43   87 40 NE 7 30.1 N/A
8:00 N/A 44 88 41 NNE 9 30.1 N/A
7:00 N/A 46 91 43 NNE 9 30.1 N/A
6:00 N/A 48 90 45 N 12 30.0 N/A
5:00 N/A 49 91 46 NNE 10 30.0 N/A
4:00 N/A 51 91 49 N 10 30.0 N/A
3:00 N/A 53 92 51 N 8 30.0 N/A
2:00 N/A 54 89 51 NNE 6 29.9 N/A
1:00 N/A 60 72 51 WNW 10 29.9 N/A
00:00 N/A 60 77 52 W 10 29.9 N/A
17 September 2014
23:00 N/A 60 72 51 WNW 9 29.9 N/A
22:00 N/A 60 70 50 WNW 10 29.9 N/A
21:00 N/A 60 69 50 WNW 7 29.9 N/A
20:00 N/A 61 67 50 NW 7 29.9 N/A
19:00 N/A 63 64 51 W 14 29.9 N/A
18:00 N/A 64   64 51 W 13 29.9 N/A
17:00 N/A 62 68 52 SW 10 29.9 N/A
16:00 N/A 64   61 50 NW 8 29.9 N/A
15:00 N/A 64   63 51 SW 13 29.9 N/A
14:00 N/A 62 66 51 SW 9 29.9 N/A
13:00 N/A 60 66 49 SW 11 29.9 N/A
N/A
Not available
 ↑ 
Highest temperature
 ↓ 
Lowest temperature

If you require additional historical weather information, please visit Climate Data Online.